Time;durP1;ratioP1;P1;durP2;ratioP2;P2;SDS_P1;SDS_P2;PMS_P1;PMS_P2;Temp;Humidity;BMP_temperature;BMP_pressure;BME280_temperature;BME280_humidity;BME280_pressure;Samples;Min_cycle;Max_cycle;Signal;HPM_P1;HPM_P2
2023/02/02 00:01:38;;;;;;;16.50;2.90;;;5.60;99.90;;;;;;4981276;28;20433;-93
2023/02/02 00:04:04;;;;;;;9.57;2.10;;;5.70;99.90;;;;;;4978872;28;20916;-91
2023/02/02 00:06:30;;;;;;;11.50;1.53;;;5.60;99.90;;;;;;4978468;28;20174;-91
2023/02/02 00:08:58;;;;;;;10.87;1.80;;;5.60;99.90;;;;;;4977224;28;20177;-92
2023/02/02 00:11:27;;;;;;;10.90;1.30;;;5.70;99.90;;;;;;4976710;28;20925;-88
2023/02/02 00:13:53;;;;;;;16.80;2.40;;;5.60;99.90;;;;;;4978041;28;20516;-93
2023/02/02 00:16:25;;;;;;;10.70;1.90;;;5.70;99.90;;;;;;4977409;28;20437;-93
2023/02/02 00:18:51;;;;;;;16.40;2.40;;;5.70;99.90;;;;;;4977004;28;20923;-91
2023/02/02 00:21:17;;;;;;;15.33;2.50;;;5.80;99.90;;;;;;4976540;28;20460;-90
2023/02/02 00:23:43;;;;;;;16.10;1.77;;;5.80;99.90;;;;;;4977855;28;20938;-89
2023/02/02 00:26:09;;;;;;;8.07;1.43;;;5.80;99.90;;;;;;4977029;28;20218;-93
2023/02/02 00:28:34;;;;;;;9.10;1.90;;;5.80;99.90;;;;;;4980914;28;20189;-83
2023/02/02 00:31:00;;;;;;;15.40;1.83;;;5.80;99.90;;;;;;4979249;28;20564;-94
2023/02/02 00:33:25;;;;;;;11.03;2.13;;;5.80;99.90;;;;;;4978251;28;20179;-91
2023/02/02 00:35:54;;;;;;;18.03;2.00;;;5.90;99.90;;;;;;4977647;28;20170;-91
2023/02/02 00:38:19;;;;;;;8.70;1.60;;;5.90;99.90;;;;;;4977704;28;20687;-91
2023/02/02 00:40:45;;;;;;;16.60;2.00;;;5.80;99.90;;;;;;4977414;28;20425;-90
2023/02/02 00:43:10;;;;;;;13.70;3.60;;;5.80;99.90;;;;;;4977634;28;20198;-93
2023/02/02 00:45:37;;;;;;;9.03;1.33;;;5.80;99.90;;;;;;4978438;28;20177;-89
2023/02/02 00:48:03;;;;;;;5.90;1.63;;;5.90;99.90;;;;;;4978480;28;20173;-93
2023/02/02 00:50:28;;;;;;;5.90;1.37;;;5.80;99.90;;;;;;4977532;28;20910;-91
2023/02/02 00:52:57;;;;;;;8.37;1.27;;;5.70;99.90;;;;;;4977538;28;20423;-92
2023/02/02 00:55:26;;;;;;;12.10;2.03;;;5.70;99.90;;;;;;4976773;28;20482;-87
2023/02/02 00:57:52;;;;;;;9.73;1.53;;;5.70;99.90;;;;;;4976142;28;20468;-91
2023/02/02 01:00:23;;;;;;;7.03;1.40;;;5.80;99.90;;;;;;4977414;28;20473;-90
2023/02/02 01:02:53;;;;;;;8.07;1.27;;;5.70;99.90;;;;;;4976941;28;20179;-92
2023/02/02 01:05:19;;;;;;;7.00;1.60;;;5.70;99.90;;;;;;4976112;28;20421;-91
2023/02/02 01:07:45;;;;;;;10.33;2.00;;;5.70;99.90;;;;;;4977212;28;20414;-91
2023/02/02 01:10:14;;;;;;;14.53;1.97;;;5.70;99.90;;;;;;4975822;28;20896;-93
2023/02/02 01:12:40;;;;;;;3.17;1.13;;;5.80;99.90;;;;;;4976274;28;20179;-90
2023/02/02 01:15:06;;;;;;;9.17;0.77;;;5.80;99.90;;;;;;4975778;28;20430;-89
2023/02/02 01:17:32;;;;;;;3.63;0.70;;;5.70;99.90;;;;;;4975608;28;20476;-90
2023/02/02 01:19:58;;;;;;;10.93;1.37;;;5.70;99.90;;;;;;4976580;28;20510;-91
2023/02/02 01:22:23;;;;;;;10.23;1.10;;;5.70;99.90;;;;;;4975317;28;20222;-91
2023/02/02 01:24:49;;;;;;;10.00;2.10;;;5.70;99.90;;;;;;4976409;28;20224;-87
2023/02/02 01:27:14;;;;;;;7.83;1.03;;;5.60;99.90;;;;;;4977316;28;20180;-91
2023/02/02 01:29:40;;;;;;;10.77;1.40;;;5.60;99.90;;;;;;4977072;28;20182;-92
2023/02/02 01:32:06;;;;;;;11.13;2.50;;;5.60;99.90;;;;;;4976741;28;20604;-90
2023/02/02 01:34:31;;;;;;;11.40;1.50;;;5.60;99.90;;;;;;4977035;28;20198;-91
2023/02/02 01:36:57;;;;;;;5.03;1.50;;;5.60;99.90;;;;;;4976323;28;20460;-91
2023/02/02 01:39:22;;;;;;;15.67;1.73;;;5.50;99.90;;;;;;4976778;28;20233;-91
2023/02/02 01:41:48;;;;;;;13.77;2.40;;;5.60;99.90;;;;;;4976473;28;20645;-91
2023/02/02 01:44:51;;;;;;;5.70;2.43;;;5.60;99.90;;;;;;4976573;28;20654;-92
2023/02/02 01:47:19;;;;;;;12.63;2.83;;;5.50;99.90;;;;;;4976567;28;20201;-93
2023/02/02 01:49:46;;;;;;;9.17;1.60;;;5.50;99.90;;;;;;4976626;28;20771;-91
2023/02/02 01:52:14;;;;;;;5.00;1.50;;;5.60;99.90;;;;;;4975567;28;20448;-92
2023/02/02 01:54:44;;;;;;;11.00;1.87;;;5.60;99.90;;;;;;4977038;28;20416;-88
2023/02/02 01:57:13;;;;;;;18.40;2.80;;;5.60;99.90;;;;;;4976175;28;20500;-87
2023/02/02 01:59:39;;;;;;;10.43;2.10;;;5.60;99.90;;;;;;4975538;28;20871;-87
2023/02/02 02:02:06;;;;;;;9.97;1.47;;;5.60;99.90;;;;;;4975520;28;20429;-83
2023/02/02 02:04:32;;;;;;;8.57;0.80;;;5.50;99.90;;;;;;4974119;28;20819;-87
2023/02/02 02:07:03;;;;;;;15.57;3.50;;;5.60;99.90;;;;;;4975408;28;20420;-89
2023/02/02 02:09:29;;;;;;;13.37;2.53;;;5.50;99.90;;;;;;4975148;28;20434;-88
2023/02/02 02:11:54;;;;;;;8.63;1.90;;;5.40;99.90;;;;;;4975252;28;20428;-87
2023/02/02 02:17:36;;;;;;;8.63;1.23;;;5.40;99.90;;;;;;4975546;28;20205;-90
2023/02/02 02:26:32;;;;;;;6.43;0.77;;;5.40;99.90;;;;;;4939280;28;20436;-89
2023/02/02 02:27:50;;;;;;;2.93;0.40;;;5.40;99.90;;;;;;4975706;28;20917;-89
2023/02/02 02:30:48;;;;;;;6.07;1.17;;;5.40;99.90;;;;;;4975593;28;20489;-90
2023/02/02 02:33:31;;;;;;;5.20;0.83;;;5.20;99.90;;;;;;4975603;28;20736;-91
2023/02/02 02:36:08;;;;;;;7.93;1.77;;;5.20;99.90;;;;;;4975778;28;20412;-89
2023/02/02 02:38:42;;;;;;;6.87;0.80;;;5.20;99.90;;;;;;4975335;28;20455;-90
2023/02/02 02:41:18;;;;;;;5.30;1.00;;;5.20;99.90;;;;;;4975159;28;20453;-89
2023/02/02 02:43:49;;;;;;;10.80;2.77;;;5.20;99.90;;;;;;4975576;28;20422;-90
2023/02/02 02:46:19;;;;;;;19.93;2.30;;;5.10;99.90;;;;;;4975530;28;20901;-91
2023/02/02 02:48:45;;;;;;;7.87;0.80;;;5.00;99.90;;;;;;4975643;28;20420;-89
2023/02/02 02:51:42;;;;;;;4.17;0.67;;;5.00;99.90;;;;;;4975493;28;20442;-89
2023/02/02 02:54:08;;;;;;;9.80;1.30;;;5.00;99.90;;;;;;4975143;28;20423;-88
2023/02/02 02:56:46;;;;;;;7.20;0.90;;;5.00;99.90;;;;;;4975234;28;20458;-91
2023/02/02 02:59:34;;;;;;;20.17;2.13;;;4.90;99.90;;;;;;4975713;28;20511;-91
2023/02/02 03:02:10;;;;;;;7.47;1.80;;;4.90;99.90;;;;;;4976158;28;20426;-90
2023/02/02 03:04:56;;;;;;;10.03;1.80;;;4.90;99.90;;;;;;4976002;28;20457;-89
2023/02/02 03:07:28;;;;;;;14.10;1.30;;;4.90;99.90;;;;;;4975886;28;20881;-92
2023/02/02 03:09:55;;;;;;;9.23;1.27;;;4.90;99.90;;;;;;4975468;28;20419;-90
2023/02/02 03:12:20;;;;;;;10.90;1.00;;;5.00;99.90;;;;;;4975296;28;20440;-90
2023/02/02 03:14:46;;;;;;;12.97;1.50;;;5.00;99.90;;;;;;4975283;28;20479;-91
2023/02/02 03:17:11;;;;;;;9.37;1.40;;;5.10;99.90;;;;;;4975636;28;20208;-92
2023/02/02 03:19:37;;;;;;;7.40;1.73;;;5.10;99.90;;;;;;4975435;28;20205;-90
2023/02/02 03:22:05;;;;;;;11.00;1.67;;;5.20;99.90;;;;;;4975430;28;20703;-92
2023/02/02 03:24:31;;;;;;;11.27;1.13;;;5.20;99.90;;;;;;4978691;28;20307;-90
2023/02/02 03:26:56;;;;;;;9.70;1.40;;;5.20;99.90;;;;;;4977255;28;20929;-91
2023/02/02 03:29:22;;;;;;;9.20;1.13;;;5.30;99.90;;;;;;4977277;28;20212;-92
2023/02/02 03:31:47;;;;;;;7.80;0.70;;;5.40;99.90;;;;;;4979267;28;20243;-89
2023/02/02 03:34:13;;;;;;;15.00;1.53;;;5.40;99.90;;;;;;4979181;28;20209;-89
2023/02/02 03:36:41;;;;;;;4.47;0.80;;;5.40;99.90;;;;;;4978685;28;20207;-91
2023/02/02 03:39:07;;;;;;;7.77;0.73;;;5.40;99.90;;;;;;4977925;28;20184;-90
2023/02/02 03:41:32;;;;;;;10.27;1.10;;;5.50;99.90;;;;;;4977486;28;20462;-89
2023/02/02 03:43:57;;;;;;;3.40;0.40;;;5.50;99.90;;;;;;4977666;28;20631;-91
2023/02/02 03:46:23;;;;;;;18.20;1.27;;;5.50;99.90;;;;;;4978812;28;20207;-89
2023/02/02 03:48:48;;;;;;;13.73;0.97;;;5.40;99.90;;;;;;4977690;28;20226;-91
2023/02/02 03:51:14;;;;;;;14.00;1.43;;;5.40;99.90;;;;;;4978432;28;20174;-91
2023/02/02 03:53:43;;;;;;;11.37;0.90;;;5.50;99.90;;;;;;4977585;28;20188;-89
2023/02/02 03:56:09;;;;;;;7.83;0.90;;;5.40;99.90;;;;;;4964336;28;20176;-94
2023/02/02 03:58:35;;;;;;;5.47;1.03;;;5.40;99.90;;;;;;4981017;28;20661;-93
2023/02/02 04:01:06;;;;;;;10.00;0.67;;;5.30;99.90;;;;;;4963567;28;20185;-90
2023/02/02 04:03:32;;;;;;;4.27;0.60;;;5.30;99.90;;;;;;4961422;28;20540;-87
2023/02/02 04:05:58;;;;;;;3.70;0.70;;;5.30;99.90;;;;;;4977183;28;20416;-91
2023/02/02 04:08:24;;;;;;;8.10;1.23;;;5.30;99.90;;;;;;4977580;28;20454;-91
2023/02/02 04:10:49;;;;;;;5.30;0.73;;;5.30;99.90;;;;;;4976925;28;20187;-92
2023/02/02 04:13:18;;;;;;;2.40;0.47;;;5.30;99.90;;;;;;4978691;28;20212;-93
2023/02/02 04:15:45;;;;;;;5.07;0.70;;;5.30;99.90;;;;;;4976732;28;20187;-91
2023/02/02 04:18:10;;;;;;;7.20;0.73;;;5.20;99.90;;;;;;4978627;28;20498;-92
2023/02/02 04:20:36;;;;;;;4.97;0.47;;;5.10;99.90;;;;;;4976607;28;20464;-93
2023/02/02 04:23:01;;;;;;;6.13;0.47;;;5.10;99.90;;;;;;4978010;28;20191;-91
2023/02/02 04:25:27;;;;;;;4.00;1.07;;;5.20;99.90;;;;;;4981604;28;20182;-91
2023/02/02 04:27:52;;;;;;;3.40;0.50;;;5.10;99.90;;;;;;4984111;28;20226;-93
2023/02/02 04:30:18;;;;;;;9.37;1.47;;;5.20;99.90;;;;;;4986437;28;20177;-94
2023/02/02 04:32:45;;;;;;;3.07;0.50;;;5.20;99.90;;;;;;4955006;28;20192;-93
2023/02/02 04:35:10;;;;;;;6.70;0.60;;;5.30;99.90;;;;;;4985005;28;20416;-94
2023/02/02 04:37:36;;;;;;;7.57;1.67;;;5.30;99.90;;;;;;4982617;28;20604;-93
2023/02/02 04:40:02;;;;;;;3.20;0.87;;;5.30;99.90;;;;;;4985552;28;20178;-91
2023/02/02 04:42:33;;;;;;;8.50;0.50;;;5.30;99.90;;;;;;4984884;28;20425;-94
2023/02/02 04:44:58;;;;;;;5.63;1.27;;;5.30;99.90;;;;;;4986268;28;20413;-94
2023/02/02 04:47:24;;;;;;;4.17;0.50;;;5.20;99.90;;;;;;4986469;28;20449;-91
2023/02/02 04:49:49;;;;;;;2.30;0.57;;;5.10;99.90;;;;;;4982068;28;20194;-93
2023/02/02 04:52:15;;;;;;;2.70;0.70;;;5.00;99.90;;;;;;4983450;28;20192;-87
2023/02/02 04:54:40;;;;;;;8.93;0.87;;;4.90;99.90;;;;;;4981799;28;20598;-93
2023/02/02 04:57:06;;;;;;;6.37;0.83;;;4.90;99.90;;;;;;4976475;28;20226;-92
2023/02/02 04:59:31;;;;;;;11.07;2.17;;;4.90;99.90;;;;;;4976228;28;20188;-91
2023/02/02 05:02:01;;;;;;;6.73;1.03;;;4.90;99.90;;;;;;4975593;28;20240;-91
2023/02/02 05:04:27;;;;;;;8.60;0.73;;;4.90;99.90;;;;;;4976322;28;20180;-83
2023/02/02 05:06:53;;;;;;;5.50;0.73;;;4.90;99.90;;;;;;4975592;28;20425;-91
2023/02/02 05:09:18;;;;;;;6.87;0.80;;;4.90;99.90;;;;;;4975692;28;20433;-85
2023/02/02 05:11:44;;;;;;;3.10;0.53;;;4.90;99.90;;;;;;4975859;28;20535;-90
2023/02/02 05:14:10;;;;;;;10.13;2.07;;;4.90;99.90;;;;;;4976906;28;20182;-91
2023/02/02 05:16:38;;;;;;;7.40;1.77;;;5.00;99.90;;;;;;4975775;28;20181;-90
2023/02/02 05:19:04;;;;;;;8.00;1.37;;;5.00;99.90;;;;;;4975967;28;20425;-91
2023/02/02 05:21:30;;;;;;;9.93;1.17;;;5.00;99.90;;;;;;4975336;28;20459;-91
2023/02/02 05:23:56;;;;;;;4.57;0.40;;;5.00;99.90;;;;;;4975331;28;20487;-90
2023/02/02 05:26:24;;;;;;;7.43;1.03;;;5.00;99.90;;;;;;4978175;28;20174;-94
2023/02/02 05:28:50;;;;;;;11.33;1.03;;;5.00;99.90;;;;;;4977945;28;20420;-89
2023/02/02 05:31:16;;;;;;;9.77;1.83;;;5.10;99.90;;;;;;4978016;28;20447;-93
2023/02/02 05:33:42;;;;;;;19.10;2.43;;;5.10;99.90;;;;;;4975492;28;20436;-92
2023/02/02 05:36:09;;;;;;;9.90;1.40;;;5.10;99.90;;;;;;4959221;28;20182;-92
2023/02/02 05:38:34;;;;;;;14.27;1.47;;;5.10;99.90;;;;;;4975191;28;20481;-93
2023/02/02 05:41:02;;;;;;;7.03;1.77;;;5.10;99.90;;;;;;4958775;28;20428;-93
2023/02/02 05:43:29;;;;;;;11.27;1.30;;;5.10;99.90;;;;;;4975383;28;20207;-91
2023/02/02 05:45:55;;;;;;;8.90;1.03;;;5.00;99.90;;;;;;4975101;28;20457;-91
2023/02/02 05:48:20;;;;;;;10.47;1.20;;;4.90;99.90;;;;;;4975329;28;20461;-93
2023/02/02 05:50:55;;;;;;;12.67;1.80;;;4.80;99.90;;;;;;4976176;28;20209;-92
2023/02/02 05:53:20;;;;;;;8.70;0.50;;;4.70;99.90;;;;;;4975938;28;20183;-91
2023/02/02 05:55:46;;;;;;;4.03;0.90;;;4.70;99.90;;;;;;4975031;28;20479;-91
2023/02/02 05:58:11;;;;;;;6.87;1.50;;;4.70;99.90;;;;;;4975185;28;20204;-91
2023/02/02 06:00:37;;;;;;;11.83;0.93;;;4.80;99.90;;;;;;4975180;28;20181;-92
2023/02/02 06:03:02;;;;;;;9.73;0.90;;;4.90;99.90;;;;;;4975231;28;20184;-91
2023/02/02 06:05:28;;;;;;;6.73;0.93;;;4.90;99.90;;;;;;4971462;28;20222;-87
2023/02/02 06:07:53;;;;;;;9.13;1.40;;;4.90;99.90;;;;;;4980393;28;20189;-91
2023/02/02 06:10:19;;;;;;;17.73;2.60;;;5.00;99.90;;;;;;4990265;28;20654;-89
2023/02/02 06:12:59;;;;;;;8.10;1.50;;;5.00;99.90;;;;;;4974410;28;20180;-93
2023/02/02 06:15:51;;;;;;;13.53;1.60;;;4.90;99.90;;;;;;4966348;28;20228;-90
2023/02/02 06:18:27;;;;;;;9.57;1.40;;;4.90;99.90;;;;;;4974432;28;20849;-92
2023/02/02 06:20:57;;;;;;;9.37;1.10;;;4.90;99.90;;;;;;4980897;28;20546;-85
2023/02/02 06:23:22;;;;;;;9.57;1.77;;;4.90;99.90;;;;;;4960920;28;20272;-90
2023/02/02 06:25:48;;;;;;;9.40;1.47;;;4.90;99.90;;;;;;4974761;28;20520;-94
2023/02/02 06:28:13;;;;;;;7.33;1.50;;;5.00;99.90;;;;;;4958372;28;20181;-92
2023/02/02 06:30:39;;;;;;;18.37;2.90;;;5.00;99.90;;;;;;4975722;28;20534;-93
2023/02/02 06:33:06;;;;;;;15.33;1.87;;;5.10;99.90;;;;;;4977358;28;20259;-90
2023/02/02 06:35:31;;;;;;;10.10;1.70;;;5.10;99.90;;;;;;4976602;28;20171;-92
2023/02/02 06:37:58;;;;;;;14.20;2.53;;;5.10;99.90;;;;;;4957743;28;20473;-87
2023/02/02 06:40:23;;;;;;;6.67;1.33;;;5.10;99.90;;;;;;4957511;28;20530;-86
2023/02/02 06:42:55;;;;;;;18.20;2.27;;;5.10;99.90;;;;;;4974166;28;20420;-91
2023/02/02 06:45:20;;;;;;;6.77;1.10;;;5.10;99.90;;;;;;4958222;28;20209;-89
2023/02/02 06:47:46;;;;;;;18.17;2.27;;;5.10;99.90;;;;;;4974094;28;20469;-92
2023/02/02 06:50:11;;;;;;;9.80;1.10;;;5.10;99.90;;;;;;4975948;28;20174;-93
2023/02/02 06:52:37;;;;;;;11.20;1.30;;;5.10;99.90;;;;;;4976199;28;20169;-92
2023/02/02 06:55:02;;;;;;;15.30;1.73;;;5.20;99.90;;;;;;4978336;28;20541;-93
2023/02/02 06:57:31;;;;;;;7.60;1.10;;;5.20;99.90;;;;;;4975008;28;20231;-91
2023/02/02 06:59:56;;;;;;;15.30;1.63;;;5.20;99.90;;;;;;4974113;28;20191;-90
2023/02/02 07:02:22;;;;;;;11.17;1.97;;;5.20;99.90;;;;;;4974551;28;20452;-92
2023/02/02 07:04:48;;;;;;;12.67;1.57;;;5.20;99.90;;;;;;4977800;28;20186;-92
2023/02/02 07:07:13;;;;;;;9.60;1.20;;;5.20;99.90;;;;;;4961226;28;20638;-88
2023/02/02 07:09:39;;;;;;;17.00;1.93;;;5.30;99.90;;;;;;4960965;28;20181;-90
2023/02/02 07:12:05;;;;;;;7.20;1.70;;;5.20;99.90;;;;;;4978414;28;20178;-93
2023/02/02 07:14:30;;;;;;;14.77;2.13;;;5.20;99.90;;;;;;4977547;28;20207;-90
2023/02/02 07:16:58;;;;;;;92.77;11.73;;;5.20;99.90;;;;;;4977252;28;20448;-89
2023/02/02 07:19:25;;;;;;;19.70;2.97;;;5.10;99.90;;;;;;4960867;28;20641;-88
2023/02/02 07:21:51;;;;;;;11.63;1.30;;;5.20;99.90;;;;;;4961832;28;20458;-89
2023/02/02 07:24:16;;;;;;;14.63;1.73;;;5.20;99.90;;;;;;4960959;28;20515;-89
2023/02/02 07:26:42;;;;;;;8.73;1.93;;;5.20;99.90;;;;;;4961698;28;20512;-85
2023/02/02 07:29:10;;;;;;;5.13;0.70;;;5.30;99.90;;;;;;4961109;28;20211;-90
2023/02/02 07:31:36;;;;;;;14.33;2.17;;;5.30;99.90;;;;;;4978674;28;20189;-88
2023/02/02 07:34:01;;;;;;;4.57;0.70;;;5.40;99.90;;;;;;4961020;28;20536;-93
2023/02/02 07:36:27;;;;;;;9.27;1.63;;;5.40;99.90;;;;;;4961149;28;20186;-91
2023/02/02 07:38:53;;;;;;;11.50;2.10;;;5.50;99.90;;;;;;4960609;28;20213;-91
2023/02/02 07:41:19;;;;;;;10.27;1.37;;;5.50;99.90;;;;;;4978239;28;20169;-90
2023/02/02 07:43:48;;;;;;;10.37;1.50;;;5.40;99.90;;;;;;4961026;28;20428;-91
2023/02/02 07:46:15;;;;;;;20.40;2.50;;;5.40;99.90;;;;;;4960808;28;20195;-90
2023/02/02 07:48:40;;;;;;;5.60;0.80;;;5.40;99.90;;;;;;4985138;28;20413;-89
2023/02/02 07:51:08;;;;;;;38.57;4.67;;;5.50;99.90;;;;;;4961527;28;20436;-92
2023/02/02 07:53:34;;;;;;;10.57;1.33;;;5.50;99.90;;;;;;4977279;28;20320;-92
2023/02/02 07:56:29;;;;;;;12.50;1.40;;;5.50;99.90;;;;;;4960929;28;20893;-91
2023/02/02 07:58:55;;;;;;;7.70;0.97;;;5.80;99.90;;;;;;4959220;28;20195;-82
2023/02/02 08:01:22;;;;;;;13.90;1.40;;;6.00;99.90;;;;;;4959426;28;20407;-84
2023/02/02 08:03:49;;;;;;;17.73;1.57;;;6.10;99.90;;;;;;4959294;28;20483;-84
2023/02/02 08:06:18;;;;;;;7.47;1.30;;;6.50;99.90;;;;;;4959114;28;20503;-82
2023/02/02 08:08:44;;;;;;;10.43;1.80;;;6.50;99.90;;;;;;4958776;28;20791;-83
2023/02/02 08:11:11;;;;;;;8.87;1.23;;;6.20;99.90;;;;;;4958867;28;20426;-82
2023/02/02 08:13:38;;;;;;;9.23;1.93;;;6.10;99.90;;;;;;4958576;28;20261;-83
2023/02/02 08:16:05;;;;;;;11.13;1.20;;;6.10;99.90;;;;;;4942867;28;20419;-83
2023/02/02 08:18:31;;;;;;;6.30;1.30;;;6.00;99.90;;;;;;4976289;28;20469;-82
2023/02/02 08:21:04;;;;;;;12.63;2.43;;;5.90;99.90;;;;;;4958798;28;20474;-83
2023/02/02 08:23:30;;;;;;;11.60;3.03;;;6.00;99.90;;;;;;4958460;28;20281;-83
2023/02/02 08:26:06;;;;;;;5.30;0.97;;;6.40;99.90;;;;;;4958867;28;20463;-82
2023/02/02 08:28:31;;;;;;;12.47;1.50;;;6.40;99.90;;;;;;4958768;28;20432;-81
2023/02/02 08:31:07;;;;;;;9.40;1.77;;;6.40;99.90;;;;;;4976182;28;20428;-83
2023/02/02 08:33:32;;;;;;;13.50;1.10;;;6.30;99.90;;;;;;4976512;28;20180;-83
2023/02/02 08:35:57;;;;;;;5.23;1.03;;;6.30;99.90;;;;;;4958662;28;20931;-81
2023/02/02 08:38:24;;;;;;;8.80;2.20;;;6.10;99.90;;;;;;4975668;28;20207;-82
2023/02/02 08:40:50;;;;;;;6.70;1.03;;;6.10;99.90;;;;;;4975853;28;20633;-83
2023/02/02 08:43:16;;;;;;;8.43;1.30;;;6.40;99.90;;;;;;4958493;28;20502;-82
2023/02/02 08:45:42;;;;;;;8.43;1.17;;;6.40;99.90;;;;;;4974615;28;20438;-82
2023/02/02 08:48:08;;;;;;;9.17;1.43;;;6.30;99.90;;;;;;4958760;28;20450;-82
2023/02/02 08:50:33;;;;;;;15.03;2.70;;;6.20;99.90;;;;;;4975954;28;20420;-82
2023/02/02 08:52:59;;;;;;;9.07;1.90;;;6.20;99.90;;;;;;4975564;28;20170;-82
2023/02/02 08:55:24;;;;;;;7.27;1.00;;;6.30;99.90;;;;;;4975218;28;20172;-82
2023/02/02 08:57:50;;;;;;;13.23;1.27;;;7.30;99.90;;;;;;4974299;28;20219;-83
2023/02/02 09:00:16;;;;;;;13.33;1.90;;;8.60;1.00;;;;;;4975475;28;20169;-83
2023/02/02 09:02:41;;;;;;;10.10;1.70;;;8.80;1.00;;;;;;4975350;28;20192;-83
2023/02/02 09:05:07;;;;;;;8.90;1.67;;;9.90;1.00;;;;;;4975404;28;20419;-83
2023/02/02 09:07:32;;;;;;;11.70;2.53;;;10.50;1.00;;;;;;4957964;28;20574;-83
2023/02/02 09:09:59;;;;;;;9.13;0.97;;;10.10;1.00;;;;;;4974947;28;20176;-83
2023/02/02 09:12:25;;;;;;;8.83;1.00;;;10.70;99.90;;;;;;4975259;28;20175;-83
2023/02/02 09:14:50;;;;;;;5.10;0.63;;;11.40;1.00;;;;;;4975221;28;20417;-83
2023/02/02 09:17:18;;;;;;;7.50;0.73;;;11.50;1.00;;;;;;4958064;28;20212;-83
2023/02/02 09:19:44;;;;;;;8.23;1.10;;;11.90;1.00;;;;;;4975168;28;20179;-83
2023/02/02 09:22:09;;;;;;;6.70;0.40;;;11.60;1.00;;;;;;4974941;28;20457;-83
2023/02/02 09:24:35;;;;;;;7.37;0.90;;;12.20;1.00;;;;;;4974642;28;20172;-84
2023/02/02 09:27:01;;;;;;;6.53;1.20;;;12.50;99.90;;;;;;4974356;28;20175;-84
2023/02/02 09:29:26;;;;;;;5.97;1.20;;;11.80;1.00;;;;;;4975000;28;20174;-84
2023/02/02 09:31:52;;;;;;;6.40;1.07;;;10.10;99.90;;;;;;4974916;28;20177;-83
2023/02/02 09:34:17;;;;;;;5.93;1.03;;;8.90;1.00;;;;;;4974820;28;20176;-83
2023/02/02 09:36:43;;;;;;;4.50;0.60;;;9.10;1.00;;;;;;4974735;28;20177;-84
2023/02/02 09:39:11;;;;;;;6.77;0.50;;;9.00;1.00;;;;;;4974512;28;20180;-83
2023/02/02 09:41:36;;;;;;;9.17;0.90;;;10.30;1.00;;;;;;4957425;28;20439;-83
2023/02/02 09:44:31;;;;;;;5.43;0.60;;;11.70;1.00;;;;;;4974836;28;20415;-84
2023/02/02 09:47:21;;;;;;;4.67;0.93;;;12.30;1.00;;;;;;4974798;28;20260;-84
2023/02/02 09:50:00;;;;;;;5.03;0.80;;;13.30;99.90;;;;;;4974746;28;20422;-83
2023/02/02 09:52:39;;;;;;;5.67;0.30;;;11.30;1.00;;;;;;4974541;28;20416;-83
2023/02/02 09:55:18;;;;;;;5.83;0.80;;;11.30;1.00;;;;;;4974204;28;20431;-84
2023/02/02 09:57:52;;;;;;;5.37;0.43;;;11.60;1.00;;;;;;4974486;28;20476;-83
2023/02/02 10:00:30;;;;;;;5.93;0.50;;;13.20;99.90;;;;;;4974640;28;20525;-84
2023/02/02 10:03:20;;;;;;;4.03;0.57;;;13.30;99.90;;;;;;4974492;28;20403;-84
2023/02/02 10:05:53;;;;;;;4.53;0.80;;;13.50;99.90;;;;;;4974445;28;20396;-83
2023/02/02 10:08:40;;;;;;;4.30;0.40;;;12.60;99.90;;;;;;4973967;28;20503;-81
2023/02/02 10:11:45;;;;;;;8.23;0.73;;;10.90;1.00;;;;;;4974161;28;20462;-81
2023/02/02 10:14:20;;;;;;;5.80;0.40;;;11.50;99.90;;;;;;4974320;28;20426;-81
2023/02/02 10:16:48;;;;;;;2.80;0.20;;;11.30;1.00;;;;;;4974296;28;20448;-84
2023/02/02 10:19:15;;;;;;;5.97;1.33;;;10.90;1.00;;;;;;4974233;28;20837;-81
2023/02/02 10:22:12;;;;;;;6.30;0.60;;;11.30;1.00;;;;;;4956722;28;20467;-82
2023/02/02 10:24:38;;;;;;;4.20;0.50;;;12.70;99.90;;;;;;4951565;28;20431;-84
2023/02/02 10:27:10;;;;;;;6.13;1.17;;;13.00;99.90;;;;;;4956879;28;20481;-82
2023/02/02 10:29:57;;;;;;;3.20;0.43;;;12.20;99.90;;;;;;4956847;28;20184;-85
2023/02/02 10:32:33;;;;;;;2.80;0.27;;;12.60;99.90;;;;;;4956774;28;20425;-82
2023/02/02 10:35:27;;;;;;;6.47;0.90;;;13.00;99.90;;;;;;4956881;28;20528;-83
2023/02/02 10:38:09;;;;;;;6.13;0.60;;;12.60;99.90;;;;;;4938340;28;20971;-85
2023/02/02 10:40:45;;;;;;;5.87;1.40;;;11.70;99.90;;;;;;4958121;28;20513;-82
2023/02/02 10:43:45;;;;;;;3.33;0.30;;;13.10;99.90;;;;;;4960696;28;20456;-83
2023/02/02 10:46:22;;;;;;;6.20;0.43;;;11.20;99.90;;;;;;4961453;28;20789;-82
2023/02/02 10:48:49;;;;;;;10.87;0.70;;;11.50;1.00;;;;;;4961083;28;21228;-84
2023/02/02 10:51:24;;;;;;;3.70;0.70;;;13.20;99.90;;;;;;4944634;28;20510;-83
2023/02/02 10:53:53;;;;;;;4.57;0.60;;;11.90;99.90;;;;;;4960201;28;20419;-83
2023/02/02 10:56:39;;;;;;;7.63;0.60;;;13.40;99.90;;;;;;4960259;28;20762;-83
2023/02/02 10:59:26;;;;;;;5.40;0.40;;;12.60;99.90;;;;;;4977876;28;20433;-83
2023/02/02 11:01:51;;;;;;;4.30;0.50;;;11.90;99.90;;;;;;4960410;28;20427;-82
2023/02/02 11:07:46;;;;;;;8.17;0.97;;;10.10;1.00;;;;;;4963819;28;20535;-86
2023/02/02 11:10:12;;;;;;;2.73;0.30;;;9.90;1.00;;;;;;4975838;28;20423;-82
2023/02/02 11:12:44;;;;;;;9.70;0.50;;;9.50;99.90;;;;;;4960067;28;20423;-82
2023/02/02 11:15:28;;;;;;;8.43;0.60;;;9.20;99.90;;;;;;4977462;28;20205;-81
2023/02/02 11:17:54;;;;;;;2.63;0.20;;;9.40;1.00;;;;;;4977369;28;20971;-81
2023/02/02 11:20:34;;;;;;;3.40;0.30;;;9.00;1.00;;;;;;4960074;28;20419;-86
2023/02/02 11:23:06;;;;;;;8.00;0.87;;;8.80;99.90;;;;;;4959587;28;20274;-81
2023/02/02 11:25:39;;;;;;;4.37;0.40;;;9.10;1.00;;;;;;4959792;28;20779;-81
2023/02/02 11:28:18;;;;;;;3.60;0.47;;;9.80;93.80;;;;;;4964371;28;20451;-81
2023/02/02 11:30:51;;;;;;;3.90;0.50;;;10.60;1.00;;;;;;4984432;28;20416;-82
2023/02/02 11:33:29;;;;;;;5.63;0.40;;;10.60;1.00;;;;;;4926278;28;20436;-82
2023/02/02 11:36:03;;;;;;;6.00;0.40;;;10.20;1.00;;;;;;4977038;28;20446;-81
2023/02/02 11:38:29;;;;;;;2.73;0.50;;;10.10;1.00;;;;;;4976544;28;20468;-82
2023/02/02 11:41:09;;;;;;;1.77;0.30;;;11.80;99.90;;;;;;4982614;28;20429;-82
2023/02/02 11:43:53;;;;;;;4.53;0.70;;;13.60;99.90;;;;;;4983969;28;20434;-83
2023/02/02 11:46:21;;;;;;;2.37;0.40;;;14.00;99.90;;;;;;4981869;28;20432;-82
2023/02/02 11:49:00;;;;;;;3.00;0.50;;;14.60;99.90;;;;;;4967560;28;20436;-82
2023/02/02 11:51:27;;;;;;;2.87;0.20;;;14.30;99.90;;;;;;4983606;28;20423;-82
2023/02/02 11:54:16;;;;;;;3.50;0.83;;;12.30;99.90;;;;;;4984460;28;20463;-82
2023/02/02 11:56:48;;;;;;;4.70;0.93;;;10.90;99.90;;;;;;4983670;28;20555;-82
2023/02/02 11:59:40;;;;;;;2.70;0.37;;;13.20;99.90;;;;;;4967523;28;20457;-82
2023/02/02 12:02:11;;;;;;;5.40;0.30;;;11.70;99.90;;;;;;4983319;28;20933;-82
2023/02/02 12:04:57;;;;;;;2.60;0.70;;;11.50;99.90;;;;;;4982115;28;20468;-82
2023/02/02 12:07:29;;;;;;;3.53;0.30;;;10.00;99.90;;;;;;4980697;28;20482;-82
2023/02/02 12:10:03;;;;;;;5.57;0.83;;;9.80;1.00;;;;;;4985368;28;20959;-82
2023/02/02 12:12:53;;;;;;;3.63;1.03;;;10.90;1.00;;;;;;4978724;28;20420;-82
2023/02/02 12:15:39;;;;;;;1.93;0.50;;;12.30;99.90;;;;;;4958930;28;20515;-82
2023/02/02 12:18:34;;;;;;;7.27;0.50;;;12.40;99.90;;;;;;4974936;28;20996;-82
2023/02/02 12:21:22;;;;;;;4.93;1.13;;;12.80;99.90;;;;;;4975007;28;20463;-82
2023/02/02 12:24:17;;;;;;;3.20;0.60;;;;;;;;;;4975916;28;20440;-82
2023/02/02 12:26:58;;;;;;;2.30;0.40;;;15.30;99.90;;;;;;4975444;28;20438;-82
2023/02/02 12:30:08;;;;;;;2.47;0.33;;;13.60;99.90;;;;;;4994290;28;20431;-82
2023/02/02 12:33:03;;;;;;;5.70;0.90;;;12.80;99.90;;;;;;4916494;29;20431;-82
2023/02/02 12:35:34;;;;;;;2.30;0.60;;;10.00;99.90;;;;;;4873921;29;20487;-81
2023/02/02 12:38:19;;;;;;;1.13;0.20;;;10.00;99.90;;;;;;4954749;28;20486;-82
2023/02/02 12:41:06;;;;;;;4.47;0.57;;;9.60;1.00;;;;;;4975850;28;20475;-81
2023/02/02 12:43:58;;;;;;;5.37;0.70;;;10.00;1.00;;;;;;4975869;28;20440;-81
2023/02/02 12:46:47;;;;;;;8.47;0.40;;;12.10;99.90;;;;;;4975851;28;20432;-82
2023/02/02 12:49:18;;;;;;;6.80;0.40;;;10.90;99.90;;;;;;4975826;28;20421;-82
2023/02/02 12:51:52;;;;;;;2.00;0.57;;;10.40;99.90;;;;;;4975657;28;20539;-81
2023/02/02 12:54:55;;;;;;;10.00;0.63;;;10.20;99.90;;;;;;4974103;28;20420;-82
2023/02/02 12:57:33;;;;;;;3.23;0.30;;;9.70;99.90;;;;;;4974352;28;20486;-82
2023/02/02 13:00:24;;;;;;;7.87;0.67;;;9.50;1.00;;;;;;4975567;28;20424;-81
2023/02/02 13:03:03;;;;;;;7.30;0.40;;;9.30;1.00;;;;;;4975476;28;20474;-80
2023/02/02 13:06:05;;;;;;;3.17;0.20;;;9.40;30.60;;;;;;4974209;28;20857;-81
2023/02/02 13:08:41;;;;;;;4.83;0.77;;;9.80;99.90;;;;;;4975019;28;20904;-82
2023/02/02 13:11:31;;;;;;;5.37;0.20;;;9.80;99.90;;;;;;4974060;28;20416;-82
2023/02/02 13:14:23;;;;;;;3.07;0.67;;;9.50;1.00;;;;;;4974001;28;20428;-82
2023/02/02 13:17:18;;;;;;;3.83;1.17;;;9.50;1.00;;;;;;4975029;28;20415;-82
2023/02/02 13:19:50;;;;;;;2.40;0.47;;;10.00;1.00;;;;;;4955855;28;20459;-81
2023/02/02 13:22:22;;;;;;;1.80;0.47;;;10.50;1.00;;;;;;4973466;28;20524;-81
2023/02/02 13:24:51;;;;;;;1.83;0.27;;;10.40;99.90;;;;;;4973588;28;20423;-81